Time;durP1;ratioP1;P1;durP2;ratioP2;P2;SDS_P1;SDS_P2;PMS_P1;PMS_P2;Temp;Humidity;BMP_temperature;BMP_pressure;BME280_temperature;BME280_humidity;BME280_pressure;Samples;Min_cycle;Max_cycle;Signal;HPM_P1;HPM_P2
2023/01/05 00:06:10;;;;;;;0.85;0.30;;;2.10;99.90;;;;;;21149831;28;20066;-52
2023/01/05 00:26:33;;;;;;;0.80;0.30;;;2.30;99.90;;;;;;21164379;28;20047;-59
2023/01/05 00:36:34;;;;;;;0.82;0.30;;;2.30;99.90;;;;;;21145038;28;20466;-59
2023/01/05 00:46:36;;;;;;;1.15;0.30;;;2.20;99.90;;;;;;21154600;28;20396;-55
2023/01/05 00:56:37;;;;;;;0.43;0.30;;;2.30;99.90;;;;;;21139705;28;20077;-59
2023/01/05 01:06:39;;;;;;;0.75;0.30;;;2.20;99.90;;;;;;21117638;28;20039;-59
2023/01/05 01:16:41;;;;;;;1.00;0.30;;;2.30;99.90;;;;;;21153912;28;20031;-59
2023/01/05 01:26:43;;;;;;;0.60;0.20;;;2.40;99.90;;;;;;21144336;28;20372;-59
2023/01/05 01:36:45;;;;;;;0.75;0.35;;;2.50;99.90;;;;;;21123319;28;20023;-54
2023/01/05 01:46:48;;;;;;;0.98;0.25;;;2.80;99.90;;;;;;21115204;28;20055;-59
2023/01/05 01:56:54;;;;;;;0.40;0.20;;;2.90;99.90;;;;;;21158451;28;20034;-59
2023/01/05 02:06:55;;;;;;;0.38;0.20;;;2.90;99.90;;;;;;21123732;28;20023;-59
2023/01/05 02:17:39;;;;;;;1.38;0.30;;;3.00;99.90;;;;;;21118510;28;20035;-59
2023/01/05 02:28:03;;;;;;;0.40;0.20;;;2.90;99.90;;;;;;20798412;28;20037;-59
2023/01/05 02:38:31;;;;;;;0.90;0.20;;;3.00;99.90;;;;;;20813557;28;20045;-59
2023/01/05 02:48:35;;;;;;;0.30;0.20;;;3.00;99.90;;;;;;20881656;28;20092;-59
2023/01/05 02:58:44;;;;;;;0.45;0.10;;;3.10;99.90;;;;;;20942958;28;20052;-59
2023/01/05 03:08:51;;;;;;;0.30;0.20;;;3.00;99.90;;;;;;21051596;28;20039;-59
2023/01/05 03:39:42;;;;;;;1.17;0.17;;;3.30;99.90;;;;;;20999304;28;20025;-59
2023/01/05 03:49:44;;;;;;;0.45;0.20;;;3.10;99.90;;;;;;21128563;28;20105;-61
2023/01/05 03:59:47;;;;;;;0.70;0.30;;;3.40;99.90;;;;;;21147909;28;20101;-59
2023/01/05 04:09:49;;;;;;;0.40;0.20;;;3.20;99.90;;;;;;21091068;28;20369;-59
2023/01/05 04:19:53;;;;;;;0.20;0.10;;;3.00;99.90;;;;;;21109202;28;20028;-59
2023/01/05 04:29:56;;;;;;;0.95;0.17;;;3.20;99.90;;;;;;21111674;28;20032;-58
2023/01/05 04:39:58;;;;;;;0.28;0.10;;;3.40;99.90;;;;;;21076709;28;20113;-58
2023/01/05 04:50:00;;;;;;;0.85;0.20;;;3.20;99.90;;;;;;21136054;28;20035;-58
2023/01/05 05:00:03;;;;;;;0.10;0.10;;;3.30;99.90;;;;;;21137500;28;20460;-55
2023/01/05 05:10:07;;;;;;;0.63;0.20;;;3.20;99.90;;;;;;21144406;28;20027;-58
2023/01/05 05:20:10;;;;;;;0.20;0.10;;;3.10;99.90;;;;;;21157942;28;20031;-58
2023/01/05 05:30:13;;;;;;;0.22;0.10;;;3.10;99.90;;;;;;21154914;28;20031;-54
2023/01/05 05:40:15;;;;;;;0.30;0.30;;;3.00;99.90;;;;;;21158650;28;20101;-58
2023/01/05 05:50:17;;;;;;;0.47;0.20;;;2.90;99.90;;;;;;21113099;28;20040;-58
2023/01/05 06:00:21;;;;;;;0.30;0.20;;;2.90;99.90;;;;;;21073415;28;20036;-59
2023/01/05 06:10:23;;;;;;;0.57;0.30;;;3.00;99.90;;;;;;21091570;28;20053;-58
2023/01/05 06:20:25;;;;;;;0.20;0.10;;;3.20;99.90;;;;;;21080307;28;20081;-58
2023/01/05 06:30:27;;;;;;;0.20;0.10;;;3.50;99.90;;;;;;21160306;28;20035;-59
2023/01/05 06:40:28;;;;;;;2.25;0.40;;;3.70;99.90;;;;;;21108360;28;20028;-58
2023/01/05 06:50:31;;;;;;;0.20;0.10;;;3.40;99.90;;;;;;21163556;28;20564;-58
2023/01/05 07:00:32;;;;;;;0.32;0.10;;;3.30;99.90;;;;;;21161334;28;20040;-59
2023/01/05 07:10:34;;;;;;;0.28;0.20;;;3.40;99.90;;;;;;21157139;28;20023;-58
2023/01/05 07:20:37;;;;;;;0.40;0.10;;;3.50;99.90;;;;;;21161785;28;20031;-59
2023/01/05 07:30:38;;;;;;;0.38;0.20;;;3.70;99.90;;;;;;21163238;28;20436;-59
2023/01/05 07:40:40;;;;;;;1.15;0.20;;;3.80;99.90;;;;;;21131448;28;20036;-59
2023/01/05 07:50:42;;;;;;;0.00;0.00;;;4.20;99.90;;;;;;21122076;28;20105;-59
2023/01/05 08:00:44;;;;;;;1.08;0.10;;;4.60;99.90;;;;;;21159213;28;20451;-59
2023/01/05 08:10:45;;;;;;;0.57;0.20;;;5.10;99.90;;;;;;21152435;28;20527;-59
2023/01/05 08:20:55;;;;;;;0.45;0.25;;;5.30;99.90;;;;;;21119734;28;20058;-59
2023/01/05 08:31:04;;;;;;;0.40;0.20;;;5.70;99.90;;;;;;21096306;28;20032;-59
2023/01/05 08:41:06;;;;;;;0.45;0.28;;;6.50;99.90;;;;;;21100825;28;20461;-59
2023/01/05 08:51:08;;;;;;;1.80;0.40;;;7.00;99.90;;;;;;21110422;28;20074;-54
2023/01/05 09:01:12;;;;;;;0.50;0.20;;;7.50;99.90;;;;;;21145026;28;20070;-59
2023/01/05 09:11:16;;;;;;;0.93;0.50;;;8.20;99.90;;;;;;21153830;28;20434;-59
2023/01/05 09:21:18;;;;;;;3.20;0.77;;;8.40;99.90;;;;;;21116636;28;20040;-59
2023/01/05 09:31:21;;;;;;;1.30;0.70;;;8.00;99.90;;;;;;21074573;28;20024;-59
2023/01/05 09:41:31;;;;;;;2.58;0.70;;;7.90;99.90;;;;;;21152574;28;20391;-59
2023/01/05 09:51:34;;;;;;;1.20;0.70;;;8.10;99.90;;;;;;21114808;28;20096;-59
2023/01/05 10:01:38;;;;;;;1.98;1.35;;;8.50;99.90;;;;;;21124399;28;20421;-59
2023/01/05 10:23:05;;;;;;;1.73;1.02;;;8.90;99.90;;;;;;20803982;28;20045;-54
2023/01/05 10:33:19;;;;;;;2.28;0.88;;;8.80;99.90;;;;;;20806235;28;20086;-59
2023/01/05 10:43:36;;;;;;;1.40;0.80;;;8.80;99.90;;;;;;20778709;28;20107;-53
2023/01/05 10:53:42;;;;;;;1.92;0.95;;;9.20;99.90;;;;;;21031223;28;20496;-59
2023/01/05 11:03:47;;;;;;;2.22;1.30;;;10.20;99.90;;;;;;21154363;28;20468;-60
2023/01/05 11:13:54;;;;;;;5.50;1.73;;;10.70;99.90;;;;;;21109399;28;20085;-59
2023/01/05 11:23:58;;;;;;;2.55;1.60;;;10.60;99.90;;;;;;21113175;28;20032;-54
2023/01/05 11:34:08;;;;;;;2.67;1.70;;;10.80;99.90;;;;;;21116398;28;20425;-53
2023/01/05 11:44:22;;;;;;;2.13;1.57;;;11.50;99.90;;;;;;21156834;28;20113;-59
2023/01/05 11:54:35;;;;;;;1.88;1.50;;;11.60;99.90;;;;;;21149766;28;20343;-54
2023/01/05 12:04:57;;;;;;;2.30;1.95;;;11.60;99.90;;;;;;21138896;28;20376;-56
2023/01/05 12:15:24;;;;;;;4.07;1.50;;;11.70;99.90;;;;;;21139231;28;20028;-60
2023/01/05 12:25:48;;;;;;;2.88;1.50;;;12.20;99.90;;;;;;21154598;28;20032;-59
2023/01/05 12:36:32;;;;;;;1.90;1.27;;;12.50;99.90;;;;;;21144695;28;20027;-59
2023/01/05 12:47:03;;;;;;;1.75;1.30;;;12.40;99.90;;;;;;20828815;28;20041;-59
2023/01/05 12:57:13;;;;;;;2.15;1.42;;;12.70;99.90;;;;;;20875810;28;20049;-58
2023/01/05 13:07:26;;;;;;;2.07;1.40;;;12.70;99.90;;;;;;20855726;28;20110;-59
2023/01/05 13:17:37;;;;;;;2.30;1.45;;;12.00;99.90;;;;;;21123793;28;20039;-59
2023/01/05 13:27:38;;;;;;;5.05;2.45;;;11.80;99.90;;;;;;21157087;28;20036;-55
2023/01/05 13:37:52;;;;;;;3.85;2.35;;;11.50;99.90;;;;;;21072801;28;20487;-59
2023/01/05 13:48:14;;;;;;;3.03;2.17;;;10.80;99.90;;;;;;21149601;28;20051;-58
2023/01/05 13:58:48;;;;;;;3.40;2.30;;;9.80;99.90;;;;;;21132654;28;20489;-59
2023/01/05 14:09:03;;;;;;;3.47;2.20;;;9.40;99.90;;;;;;21125062;28;20048;-58
2023/01/05 14:19:22;;;;;;;3.38;2.70;;;9.30;99.90;;;;;;21148075;28;20020;-59
2023/01/05 14:29:50;;;;;;;4.13;3.00;;;9.20;99.90;;;;;;21156343;28;20027;-59
2023/01/05 14:39:54;;;;;;;4.80;3.42;;;8.70;99.90;;;;;;21101120;28;20106;-59
2023/01/05 14:50:02;;;;;;;5.20;3.42;;;8.40;99.90;;;;;;21108796;28;20043;-59
2023/01/05 15:00:10;;;;;;;3.83;2.85;;;8.10;99.90;;;;;;21170985;28;20031;-54
2023/01/05 15:10:33;;;;;;;4.78;1.90;;;7.90;99.90;;;;;;21146276;28;20039;-58
2023/01/05 15:21:02;;;;;;;0.28;0.10;;;7.80;99.90;;;;;;21146627;28;20031;-55
2023/01/05 15:31:21;;;;;;;0.20;0.10;;;8.40;99.90;;;;;;21117344;28;20027;-58
2023/01/05 15:41:25;;;;;;;1.00;0.08;;;8.90;99.90;;;;;;21157763;28;20420;-54
2023/01/05 15:51:30;;;;;;;0.57;0.10;;;8.60;99.90;;;;;;21132603;28;20044;-52
2023/01/05 16:01:36;;;;;;;0.13;0.03;;;8.50;99.90;;;;;;21130265;28;20473;-58
2023/01/05 16:11:43;;;;;;;0.10;0.10;;;8.60;99.90;;;;;;21111032;28;20023;-58
2023/01/05 16:21:52;;;;;;;0.03;0.00;;;8.10;99.90;;;;;;21122506;28;20329;-59
2023/01/05 16:31:55;;;;;;;0.13;0.00;;;8.10;99.70;;;;;;21085896;28;20464;-54
2023/01/05 16:52:30;;;;;;;0.10;0.10;;;8.80;98.70;;;;;;21087703;28;20040;-57
2023/01/05 17:02:34;;;;;;;0.15;0.00;;;8.20;99.30;;;;;;21152299;28;20070;-57
2023/01/05 17:12:37;;;;;;;0.68;0.10;;;8.20;98.00;;;;;;21157495;28;20058;-58
2023/01/05 17:22:39;;;;;;;0.20;0.10;;;8.50;98.30;;;;;;21134798;28;20595;-58
2023/01/05 17:32:40;;;;;;;0.73;0.10;;;8.30;99.00;;;;;;21149819;28;20433;-55
2023/01/05 17:42:42;;;;;;;0.32;0.10;;;7.80;99.20;;;;;;21115789;28;20036;-58
2023/01/05 17:52:44;;;;;;;0.35;0.10;;;7.70;99.00;;;;;;21137775;28;20069;-58
2023/01/05 18:02:46;;;;;;;0.10;0.00;;;7.80;97.10;;;;;;21091549;28;20036;-58
2023/01/05 18:12:48;;;;;;;0.22;0.10;;;7.70;97.60;;;;;;21155919;28;20352;-58
2023/01/05 18:22:49;;;;;;;0.10;0.00;;;7.80;97.20;;;;;;21117566;28;20533;-58
2023/01/05 18:32:51;;;;;;;0.20;0.00;;;7.90;97.10;;;;;;21164651;28;20040;-58
2023/01/05 18:42:52;;;;;;;0.10;0.00;;;7.80;96.20;;;;;;21102033;28;20035;-58
2023/01/05 18:52:54;;;;;;;0.10;0.10;;;8.10;94.50;;;;;;21136487;28;20044;-52
2023/01/05 19:02:55;;;;;;;0.10;0.00;;;8.30;94.40;;;;;;21162178;28;20051;-57
2023/01/05 19:12:57;;;;;;;0.08;0.00;;;8.30;93.90;;;;;;21169602;28;20027;-57
2023/01/05 19:23:00;;;;;;;0.32;0.00;;;8.40;93.20;;;;;;21145141;28;20048;-57
2023/01/05 19:33:02;;;;;;;0.17;0.00;;;8.40;92.70;;;;;;21159666;28;20424;-59
2023/01/05 19:43:04;;;;;;;0.10;0.00;;;8.20;93.00;;;;;;21157856;28;20024;-57
2023/01/05 19:53:06;;;;;;;0.65;0.15;;;8.10;93.20;;;;;;21148802;28;20048;-57
2023/01/05 20:03:08;;;;;;;0.00;0.00;;;8.10;93.60;;;;;;21118069;28;20031;-58
2023/01/05 20:13:09;;;;;;;0.10;0.00;;;7.90;93.90;;;;;;21165521;28;20024;-58
2023/01/05 20:23:11;;;;;;;0.00;0.00;;;7.90;93.10;;;;;;21130141;28;20406;-57
2023/01/05 20:33:13;;;;;;;0.00;0.00;;;7.80;93.10;;;;;;21155873;28;20031;-58
2023/01/05 20:43:15;;;;;;;0.25;0.00;;;7.60;93.10;;;;;;21090847;28;20032;-57
2023/01/05 20:53:17;;;;;;;0.10;0.00;;;7.50;93.40;;;;;;21125919;28;20040;-57
2023/01/05 21:03:19;;;;;;;0.00;0.00;;;7.50;92.90;;;;;;21152398;28;20081;-57
2023/01/05 21:13:21;;;;;;;0.00;0.00;;;7.70;92.50;;;;;;21159948;28;20035;-58
2023/01/05 21:23:23;;;;;;;0.00;0.00;;;7.70;91.90;;;;;;21095870;28;20259;-58
2023/01/05 21:33:25;;;;;;;0.03;0.00;;;7.70;91.80;;;;;;21094939;28;20066;-58
2023/01/05 21:43:28;;;;;;;0.00;0.00;;;7.90;92.20;;;;;;21145873;28;20035;-57
2023/01/05 22:03:51;;;;;;;0.00;0.00;;;7.70;92.40;;;;;;21101733;28;20048;-57
2023/01/05 22:13:53;;;;;;;0.00;0.00;;;7.50;92.60;;;;;;21088935;28;20546;-58
2023/01/05 22:23:55;;;;;;;0.00;0.00;;;7.20;93.00;;;;;;21130723;28;20036;-54
2023/01/05 22:33:59;;;;;;;0.75;0.10;;;7.30;92.60;;;;;;21147891;28;20027;-52
2023/01/05 22:44:01;;;;;;;0.10;0.00;;;7.40;92.60;;;;;;21120875;28;20073;-57
2023/01/05 22:54:04;;;;;;;0.00;0.00;;;7.30;93.20;;;;;;21122637;28;20387;-54
2023/01/05 23:04:06;;;;;;;0.10;0.00;;;7.30;93.10;;;;;;21095278;28;20446;-57
2023/01/05 23:14:10;;;;;;;0.00;0.00;;;7.30;93.10;;;;;;21156956;28;20040;-49
2023/01/05 23:24:12;;;;;;;0.63;0.10;;;7.30;92.90;;;;;;21102578;28;20478;-57
2023/01/05 23:34:13;;;;;;;0.08;0.00;;;7.30;93.30;;;;;;21123366;28;20476;-57
2023/01/05 23:44:15;;;;;;;0.00;0.00;;;7.10;93.90;;;;;;21161865;28;20039;-57
2023/01/05 23:54:17;;;;;;;0.10;0.00;;;7.10;93.80;;;;;;21132339;28;20032;-57
